sensor_id;sensor_type;location;lat;lon;timestamp;P1;durP1;ratioP1;P2;durP2;ratioP2
78116;SDS011;67887;59.082;37.928;2023-02-23T00:01:48;18.35;;;5.93;;
78116;SDS011;67887;59.082;37.928;2023-02-23T00:04:15;21.48;;;6.78;;
78116;SDS011;67887;59.082;37.928;2023-02-23T00:06:43;18.98;;;6.82;;
78116;SDS011;67887;59.082;37.928;2023-02-23T00:09:09;22.95;;;6.68;;
78116;SDS011;67887;59.082;37.928;2023-02-23T00:12:03;22.13;;;7.50;;
78116;SDS011;67887;59.082;37.928;2023-02-23T00:14:33;21.13;;;7.70;;
78116;SDS011;67887;59.082;37.928;2023-02-23T00:17:02;24.58;;;8.82;;
78116;SDS011;67887;59.082;37.928;2023-02-23T00:19:28;23.42;;;9.10;;
78116;SDS011;67887;59.082;37.928;2023-02-23T00:21:54;27.20;;;9.15;;
78116;SDS011;67887;59.082;37.928;2023-02-23T00:24:24;25.42;;;7.85;;
78116;SDS011;67887;59.082;37.928;2023-02-23T00:26:51;23.50;;;8.77;;
78116;SDS011;67887;59.082;37.928;2023-02-23T00:29:19;31.45;;;9.35;;
78116;SDS011;67887;59.082;37.928;2023-02-23T00:31:47;27.48;;;8.63;;
78116;SDS011;67887;59.082;37.928;2023-02-23T00:34:15;28.45;;;8.80;;
78116;SDS011;67887;59.082;37.928;2023-02-23T00:36:48;32.92;;;9.50;;
78116;SDS011;67887;59.082;37.928;2023-02-23T00:39:16;20.33;;;8.40;;
78116;SDS011;67887;59.082;37.928;2023-02-23T00:41:53;22.25;;;8.40;;
78116;SDS011;67887;59.082;37.928;2023-02-23T00:44:21;24.10;;;8.20;;
78116;SDS011;67887;59.082;37.928;2023-02-23T00:46:48;27.25;;;8.60;;
78116;SDS011;67887;59.082;37.928;2023-02-23T00:49:16;26.35;;;8.45;;
78116;SDS011;67887;59.082;37.928;2023-02-23T00:51:43;29.65;;;8.63;;
78116;SDS011;67887;59.082;37.928;2023-02-23T00:54:13;22.45;;;8.18;;
78116;SDS011;67887;59.082;37.928;2023-02-23T00:56:40;24.48;;;8.43;;
78116;SDS011;67887;59.082;37.928;2023-02-23T00:59:06;31.30;;;7.65;;
78116;SDS011;67887;59.082;37.928;2023-02-23T01:01:32;25.15;;;7.20;;
78116;SDS011;67887;59.082;37.928;2023-02-23T01:04:00;16.48;;;6.38;;
78116;SDS011;67887;59.082;37.928;2023-02-23T01:06:26;22.85;;;6.50;;
78116;SDS011;67887;59.082;37.928;2023-02-23T01:08:52;22.63;;;6.25;;
78116;SDS011;67887;59.082;37.928;2023-02-23T01:11:25;19.77;;;6.18;;
78116;SDS011;67887;59.082;37.928;2023-02-23T01:13:54;19.27;;;5.80;;
78116;SDS011;67887;59.082;37.928;2023-02-23T01:16:23;20.33;;;6.28;;
78116;SDS011;67887;59.082;37.928;2023-02-23T01:18:53;14.02;;;5.95;;
78116;SDS011;67887;59.082;37.928;2023-02-23T01:21:21;19.58;;;6.88;;
78116;SDS011;67887;59.082;37.928;2023-02-23T01:23:49;29.25;;;6.13;;
78116;SDS011;67887;59.082;37.928;2023-02-23T01:26:23;29.02;;;7.22;;
78116;SDS011;67887;59.082;37.928;2023-02-23T01:28:56;17.63;;;5.97;;
78116;SDS011;67887;59.082;37.928;2023-02-23T01:31:25;17.88;;;6.00;;
78116;SDS011;67887;59.082;37.928;2023-02-23T01:33:55;30.13;;;6.35;;
78116;SDS011;67887;59.082;37.928;2023-02-23T01:36:25;26.40;;;6.05;;
78116;SDS011;67887;59.082;37.928;2023-02-23T01:38:54;19.25;;;7.05;;
78116;SDS011;67887;59.082;37.928;2023-02-23T01:41:22;19.02;;;6.50;;
78116;SDS011;67887;59.082;37.928;2023-02-23T01:43:56;14.93;;;6.15;;
78116;SDS011;67887;59.082;37.928;2023-02-23T01:46:24;20.77;;;6.20;;
78116;SDS011;67887;59.082;37.928;2023-02-23T01:48:51;20.00;;;5.93;;
78116;SDS011;67887;59.082;37.928;2023-02-23T01:51:21;17.63;;;6.47;;
78116;SDS011;67887;59.082;37.928;2023-02-23T01:53:54;18.52;;;6.28;;
78116;SDS011;67887;59.082;37.928;2023-02-23T01:56:27;17.52;;;5.78;;
78116;SDS011;67887;59.082;37.928;2023-02-23T01:59:00;14.20;;;5.25;;
78116;SDS011;67887;59.082;37.928;2023-02-23T02:01:29;17.70;;;5.35;;
78116;SDS011;67887;59.082;37.928;2023-02-23T02:03:57;14.98;;;5.53;;
78116;SDS011;67887;59.082;37.928;2023-02-23T02:06:26;16.42;;;6.00;;
78116;SDS011;67887;59.082;37.928;2023-02-23T02:08:55;25.45;;;6.32;;
78116;SDS011;67887;59.082;37.928;2023-02-23T02:11:24;17.63;;;5.80;;
78116;SDS011;67887;59.082;37.928;2023-02-23T02:13:58;20.02;;;5.55;;
78116;SDS011;67887;59.082;37.928;2023-02-23T02:16:33;18.17;;;6.18;;
78116;SDS011;67887;59.082;37.928;2023-02-23T02:42:04;14.55;;;4.68;;
78116;SDS011;67887;59.082;37.928;2023-02-23T02:44:57;19.27;;;5.18;;
78116;SDS011;67887;59.082;37.928;2023-02-23T02:47:34;14.23;;;4.80;;
78116;SDS011;67887;59.082;37.928;2023-02-23T02:50:08;14.07;;;5.57;;
78116;SDS011;67887;59.082;37.928;2023-02-23T02:52:44;13.38;;;5.18;;
78116;SDS011;67887;59.082;37.928;2023-02-23T02:55:21;13.90;;;5.18;;
78116;SDS011;67887;59.082;37.928;2023-02-23T02:57:51;22.05;;;6.53;;
78116;SDS011;67887;59.082;37.928;2023-02-23T03:00:28;15.48;;;5.75;;
78116;SDS011;67887;59.082;37.928;2023-02-23T03:03:27;16.00;;;5.95;;
78116;SDS011;67887;59.082;37.928;2023-02-23T03:06:14;16.00;;;6.22;;
78116;SDS011;67887;59.082;37.928;2023-02-23T03:15:45;22.08;;;6.70;;
78116;SDS011;67887;59.082;37.928;2023-02-23T03:18:38;19.17;;;6.72;;
78116;SDS011;67887;59.082;37.928;2023-02-23T03:21:44;23.10;;;7.40;;
78116;SDS011;67887;59.082;37.928;2023-02-23T03:33:52;27.50;;;9.40;;
78116;SDS011;67887;59.082;37.928;2023-02-23T03:36:53;42.85;;;14.32;;
78116;SDS011;67887;59.082;37.928;2023-02-23T03:39:52;43.17;;;14.05;;
78116;SDS011;67887;59.082;37.928;2023-02-23T03:42:45;48.33;;;15.45;;
78116;SDS011;67887;59.082;37.928;2023-02-23T03:45:35;47.58;;;18.05;;
78116;SDS011;67887;59.082;37.928;2023-02-23T03:48:21;61.17;;;18.00;;
78116;SDS011;67887;59.082;37.928;2023-02-23T03:51:09;61.50;;;22.90;;
78116;SDS011;67887;59.082;37.928;2023-02-23T03:56:52;56.00;;;21.10;;
78116;SDS011;67887;59.082;37.928;2023-02-23T03:59:42;83.40;;;25.02;;
78116;SDS011;67887;59.082;37.928;2023-02-23T04:02:38;79.35;;;26.17;;
78116;SDS011;67887;59.082;37.928;2023-02-23T04:05:26;98.25;;;31.25;;
78116;SDS011;67887;59.082;37.928;2023-02-23T04:08:13;100.72;;;29.85;;
78116;SDS011;67887;59.082;37.928;2023-02-23T04:11:12;88.88;;;30.08;;
78116;SDS011;67887;59.082;37.928;2023-02-23T04:14:04;82.93;;;27.15;;
78116;SDS011;67887;59.082;37.928;2023-02-23T04:16:32;73.25;;;25.45;;
78116;SDS011;67887;59.082;37.928;2023-02-23T04:18:59;60.75;;;21.10;;
78116;SDS011;67887;59.082;37.928;2023-02-23T04:21:25;60.15;;;20.48;;
78116;SDS011;67887;59.082;37.928;2023-02-23T04:23:51;43.33;;;17.70;;
78116;SDS011;67887;59.082;37.928;2023-02-23T04:26:17;46.88;;;16.77;;
78116;SDS011;67887;59.082;37.928;2023-02-23T04:28:43;43.08;;;14.35;;
78116;SDS011;67887;59.082;37.928;2023-02-23T04:31:10;31.77;;;12.00;;
78116;SDS011;67887;59.082;37.928;2023-02-23T04:33:35;39.67;;;12.63;;
78116;SDS011;67887;59.082;37.928;2023-02-23T04:36:02;34.22;;;12.25;;
78116;SDS011;67887;59.082;37.928;2023-02-23T04:38:29;29.85;;;10.25;;
78116;SDS011;67887;59.082;37.928;2023-02-23T04:40:54;29.50;;;9.77;;
78116;SDS011;67887;59.082;37.928;2023-02-23T04:43:21;26.17;;;9.63;;
78116;SDS011;67887;59.082;37.928;2023-02-23T04:45:47;20.67;;;8.32;;
78116;SDS011;67887;59.082;37.928;2023-02-23T04:48:13;23.27;;;8.55;;
78116;SDS011;67887;59.082;37.928;2023-02-23T04:50:38;19.83;;;7.43;;
78116;SDS011;67887;59.082;37.928;2023-02-23T04:53:05;23.13;;;7.65;;
78116;SDS011;67887;59.082;37.928;2023-02-23T04:55:31;31.20;;;7.25;;
78116;SDS011;67887;59.082;37.928;2023-02-23T04:57:58;21.67;;;6.85;;
78116;SDS011;67887;59.082;37.928;2023-02-23T05:00:26;19.38;;;6.53;;
78116;SDS011;67887;59.082;37.928;2023-02-23T05:02:54;12.90;;;5.82;;
78116;SDS011;67887;59.082;37.928;2023-02-23T05:05:20;16.50;;;6.20;;
78116;SDS011;67887;59.082;37.928;2023-02-23T05:07:47;16.55;;;5.60;;
78116;SDS011;67887;59.082;37.928;2023-02-23T05:10:13;12.98;;;5.18;;
78116;SDS011;67887;59.082;37.928;2023-02-23T05:12:39;14.40;;;5.93;;
78116;SDS011;67887;59.082;37.928;2023-02-23T05:15:05;13.95;;;4.22;;
78116;SDS011;67887;59.082;37.928;2023-02-23T05:17:32;16.30;;;5.15;;
78116;SDS011;67887;59.082;37.928;2023-02-23T05:19:58;12.45;;;4.70;;
78116;SDS011;67887;59.082;37.928;2023-02-23T05:22:24;14.35;;;5.22;;
78116;SDS011;67887;59.082;37.928;2023-02-23T05:24:50;12.05;;;4.30;;
78116;SDS011;67887;59.082;37.928;2023-02-23T05:27:16;12.98;;;5.03;;
78116;SDS011;67887;59.082;37.928;2023-02-23T05:29:42;14.05;;;5.32;;
78116;SDS011;67887;59.082;37.928;2023-02-23T05:32:08;15.90;;;5.82;;
78116;SDS011;67887;59.082;37.928;2023-02-23T05:34:34;14.15;;;6.15;;
78116;SDS011;67887;59.082;37.928;2023-02-23T05:37:01;18.02;;;6.18;;
78116;SDS011;67887;59.082;37.928;2023-02-23T05:39:27;15.43;;;5.90;;
78116;SDS011;67887;59.082;37.928;2023-02-23T05:41:53;17.70;;;5.90;;
78116;SDS011;67887;59.082;37.928;2023-02-23T05:44:19;18.65;;;5.93;;
78116;SDS011;67887;59.082;37.928;2023-02-23T05:46:45;23.30;;;6.35;;
78116;SDS011;67887;59.082;37.928;2023-02-23T05:49:14;18.17;;;6.13;;
78116;SDS011;67887;59.082;37.928;2023-02-23T05:51:40;14.77;;;5.63;;
78116;SDS011;67887;59.082;37.928;2023-02-23T05:54:06;23.88;;;5.90;;
78116;SDS011;67887;59.082;37.928;2023-02-23T05:56:32;16.58;;;5.97;;
78116;SDS011;67887;59.082;37.928;2023-02-23T05:58:58;20.30;;;5.78;;
78116;SDS011;67887;59.082;37.928;2023-02-23T06:01:25;19.98;;;5.57;;
78116;SDS011;67887;59.082;37.928;2023-02-23T06:03:52;20.33;;;6.03;;
78116;SDS011;67887;59.082;37.928;2023-02-23T06:06:18;12.55;;;5.50;;
78116;SDS011;67887;59.082;37.928;2023-02-23T06:08:44;15.57;;;5.57;;
78116;SDS011;67887;59.082;37.928;2023-02-23T06:11:11;17.77;;;5.97;;
78116;SDS011;67887;59.082;37.928;2023-02-23T06:13:37;12.90;;;5.47;;
78116;SDS011;67887;59.082;37.928;2023-02-23T06:16:03;16.42;;;5.55;;
78116;SDS011;67887;59.082;37.928;2023-02-23T06:18:30;16.67;;;5.82;;
78116;SDS011;67887;59.082;37.928;2023-02-23T06:21:00;16.08;;;5.57;;
78116;SDS011;67887;59.082;37.928;2023-02-23T06:23:28;16.40;;;5.53;;
78116;SDS011;67887;59.082;37.928;2023-02-23T06:25:55;13.82;;;5.10;;
78116;SDS011;67887;59.082;37.928;2023-02-23T06:28:21;12.30;;;5.38;;
78116;SDS011;67887;59.082;37.928;2023-02-23T06:30:50;15.35;;;5.35;;
78116;SDS011;67887;59.082;37.928;2023-02-23T06:33:17;15.95;;;5.20;;
78116;SDS011;67887;59.082;37.928;2023-02-23T06:35:43;17.80;;;5.65;;
78116;SDS011;67887;59.082;37.928;2023-02-23T06:38:10;20.48;;;4.72;;
78116;SDS011;67887;59.082;37.928;2023-02-23T06:40:36;15.40;;;5.05;;
78116;SDS011;67887;59.082;37.928;2023-02-23T06:43:03;17.55;;;5.80;;
78116;SDS011;67887;59.082;37.928;2023-02-23T06:45:29;12.57;;;4.95;;
78116;SDS011;67887;59.082;37.928;2023-02-23T06:47:57;12.35;;;4.65;;
78116;SDS011;67887;59.082;37.928;2023-02-23T06:50:24;14.73;;;5.30;;
78116;SDS011;67887;59.082;37.928;2023-02-23T06:52:50;14.90;;;4.90;;
78116;SDS011;67887;59.082;37.928;2023-02-23T06:55:16;14.55;;;4.95;;
78116;SDS011;67887;59.082;37.928;2023-02-23T06:57:42;11.60;;;4.90;;
78116;SDS011;67887;59.082;37.928;2023-02-23T07:00:10;15.30;;;5.20;;
78116;SDS011;67887;59.082;37.928;2023-02-23T07:02:40;13.45;;;4.80;;
78116;SDS011;67887;59.082;37.928;2023-02-23T07:05:06;11.50;;;4.45;;
78116;SDS011;67887;59.082;37.928;2023-02-23T07:07:33;19.77;;;5.50;;
78116;SDS011;67887;59.082;37.928;2023-02-23T07:09:59;13.20;;;5.15;;
78116;SDS011;67887;59.082;37.928;2023-02-23T07:12:25;16.08;;;5.50;;
78116;SDS011;67887;59.082;37.928;2023-02-23T07:14:51;12.27;;;5.03;;
78116;SDS011;67887;59.082;37.928;2023-02-23T07:17:17;11.43;;;4.57;;
78116;SDS011;67887;59.082;37.928;2023-02-23T07:19:43;12.68;;;5.18;;
78116;SDS011;67887;59.082;37.928;2023-02-23T07:22:09;14.50;;;5.25;;
78116;SDS011;67887;59.082;37.928;2023-02-23T07:24:35;11.23;;;4.50;;
78116;SDS011;67887;59.082;37.928;2023-02-23T07:27:03;18.80;;;4.90;;
78116;SDS011;67887;59.082;37.928;2023-02-23T07:29:29;11.73;;;4.43;;
78116;SDS011;67887;59.082;37.928;2023-02-23T07:31:56;18.90;;;5.50;;
78116;SDS011;67887;59.082;37.928;2023-02-23T07:34:22;15.57;;;4.72;;
78116;SDS011;67887;59.082;37.928;2023-02-23T07:36:48;16.40;;;5.68;;
78116;SDS011;67887;59.082;37.928;2023-02-23T07:39:14;14.02;;;4.90;;
78116;SDS011;67887;59.082;37.928;2023-02-23T07:41:40;12.60;;;4.90;;
78116;SDS011;67887;59.082;37.928;2023-02-23T07:44:16;15.30;;;5.07;;
78116;SDS011;67887;59.082;37.928;2023-02-23T07:46:42;10.80;;;4.55;;
78116;SDS011;67887;59.082;37.928;2023-02-23T07:49:11;10.45;;;4.35;;
78116;SDS011;67887;59.082;37.928;2023-02-23T07:51:38;12.40;;;4.60;;
78116;SDS011;67887;59.082;37.928;2023-02-23T07:54:05;12.95;;;4.65;;
78116;SDS011;67887;59.082;37.928;2023-02-23T07:56:31;12.00;;;4.97;;
78116;SDS011;67887;59.082;37.928;2023-02-23T07:58:58;12.35;;;5.13;;
78116;SDS011;67887;59.082;37.928;2023-02-23T08:01:24;10.88;;;4.75;;
78116;SDS011;67887;59.082;37.928;2023-02-23T08:03:50;11.45;;;4.32;;
78116;SDS011;67887;59.082;37.928;2023-02-23T08:06:17;10.00;;;4.45;;
78116;SDS011;67887;59.082;37.928;2023-02-23T08:08:45;13.05;;;4.68;;
78116;SDS011;67887;59.082;37.928;2023-02-23T08:11:11;12.30;;;4.72;;
78116;SDS011;67887;59.082;37.928;2023-02-23T08:13:37;13.10;;;4.97;;
78116;SDS011;67887;59.082;37.928;2023-02-23T08:16:03;12.82;;;5.30;;
78116;SDS011;67887;59.082;37.928;2023-02-23T08:18:30;12.00;;;4.93;;
78116;SDS011;67887;59.082;37.928;2023-02-23T08:20:56;10.73;;;4.82;;
78116;SDS011;67887;59.082;37.928;2023-02-23T08:23:29;10.95;;;4.68;;
78116;SDS011;67887;59.082;37.928;2023-02-23T08:25:56;12.65;;;5.07;;
78116;SDS011;67887;59.082;37.928;2023-02-23T08:28:24;12.63;;;5.20;;
78116;SDS011;67887;59.082;37.928;2023-02-23T08:30:51;10.68;;;4.57;;
78116;SDS011;67887;59.082;37.928;2023-02-23T08:33:17;11.73;;;4.82;;
78116;SDS011;67887;59.082;37.928;2023-02-23T08:35:43;11.32;;;4.68;;
78116;SDS011;67887;59.082;37.928;2023-02-23T08:38:09;12.32;;;5.07;;
78116;SDS011;67887;59.082;37.928;2023-02-23T08:40:35;11.13;;;4.38;;
78116;SDS011;67887;59.082;37.928;2023-02-23T08:43:02;10.55;;;5.13;;
78116;SDS011;67887;59.082;37.928;2023-02-23T08:45:28;14.25;;;5.32;;
78116;SDS011;67887;59.082;37.928;2023-02-23T08:47:54;11.93;;;5.03;;
78116;SDS011;67887;59.082;37.928;2023-02-23T08:50:21;10.15;;;4.32;;
78116;SDS011;67887;59.082;37.928;2023-02-23T08:52:47;13.18;;;4.80;;
78116;SDS011;67887;59.082;37.928;2023-02-23T08:55:13;12.77;;;5.18;;
78116;SDS011;67887;59.082;37.928;2023-02-23T08:57:42;12.50;;;5.15;;
78116;SDS011;67887;59.082;37.928;2023-02-23T09:00:09;13.18;;;4.57;;
78116;SDS011;67887;59.082;37.928;2023-02-23T09:02:42;11.93;;;5.10;;
78116;SDS011;67887;59.082;37.928;2023-02-23T09:05:10;12.18;;;4.90;;
78116;SDS011;67887;59.082;37.928;2023-02-23T09:07:36;12.40;;;5.32;;
78116;SDS011;67887;59.082;37.928;2023-02-23T09:10:03;14.40;;;5.00;;
78116;SDS011;67887;59.082;37.928;2023-02-23T09:12:30;13.05;;;5.78;;
78116;SDS011;67887;59.082;37.928;2023-02-23T09:14:56;12.75;;;5.22;;
78116;SDS011;67887;59.082;37.928;2023-02-23T09:17:22;13.70;;;5.47;;
78116;SDS011;67887;59.082;37.928;2023-02-23T09:19:48;15.73;;;6.13;;
78116;SDS011;67887;59.082;37.928;2023-02-23T09:22:15;10.68;;;5.07;;
78116;SDS011;67887;59.082;37.928;2023-02-23T09:24:43;13.75;;;5.20;;
78116;SDS011;67887;59.082;37.928;2023-02-23T09:27:09;13.00;;;5.70;;
78116;SDS011;67887;59.082;37.928;2023-02-23T09:29:37;12.88;;;5.65;;
78116;SDS011;67887;59.082;37.928;2023-02-23T09:32:07;12.30;;;5.30;;
78116;SDS011;67887;59.082;37.928;2023-02-23T09:34:33;11.80;;;5.40;;
78116;SDS011;67887;59.082;37.928;2023-02-23T09:37:00;14.68;;;5.35;;
78116;SDS011;67887;59.082;37.928;2023-02-23T09:39:27;13.52;;;5.22;;
78116;SDS011;67887;59.082;37.928;2023-02-23T09:42:08;12.48;;;5.72;;
78116;SDS011;67887;59.082;37.928;2023-02-23T09:52:46;11.98;;;4.95;;
78116;SDS011;67887;59.082;37.928;2023-02-23T09:55:18;13.15;;;5.60;;
78116;SDS011;67887;59.082;37.928;2023-02-23T09:57:45;11.30;;;5.22;;
78116;SDS011;67887;59.082;37.928;2023-02-23T10:00:20;14.18;;;5.57;;
78116;SDS011;67887;59.082;37.928;2023-02-23T10:05:39;11.88;;;5.57;;
78116;SDS011;67887;59.082;37.928;2023-02-23T10:08:18;11.77;;;4.75;;
78116;SDS011;67887;59.082;37.928;2023-02-23T10:10:52;11.15;;;4.85;;
78116;SDS011;67887;59.082;37.928;2023-02-23T10:21:39;10.43;;;4.63;;
78116;SDS011;67887;59.082;37.928;2023-02-23T10:24:12;11.40;;;5.28;;
78116;SDS011;67887;59.082;37.928;2023-02-23T10:27:01;11.05;;;4.93;;
78116;SDS011;67887;59.082;37.928;2023-02-23T10:29:36;13.98;;;5.43;;
78116;SDS011;67887;59.082;37.928;2023-02-23T10:34:53;11.50;;;5.03;;
78116;SDS011;67887;59.082;37.928;2023-02-23T10:37:24;10.43;;;5.05;;
78116;SDS011;67887;59.082;37.928;2023-02-23T10:39:50;10.93;;;4.85;;
78116;SDS011;67887;59.082;37.928;2023-02-23T10:42:22;8.27;;;4.35;;
78116;SDS011;67887;59.082;37.928;2023-02-23T10:44:57;10.88;;;4.75;;
78116;SDS011;67887;59.082;37.928;2023-02-23T10:47:29;8.52;;;3.83;;
78116;SDS011;67887;59.082;37.928;2023-02-23T10:49:58;9.95;;;4.60;;
78116;SDS011;67887;59.082;37.928;2023-02-23T10:52:29;10.10;;;4.55;;
78116;SDS011;67887;59.082;37.928;2023-02-23T10:55:03;10.57;;;4.25;;
78116;SDS011;67887;59.082;37.928;2023-02-23T10:57:35;10.95;;;4.53;;
78116;SDS011;67887;59.082;37.928;2023-02-23T11:02:42;11.35;;;4.53;;
78116;SDS011;67887;59.082;37.928;2023-02-23T11:05:32;10.93;;;4.38;;
78116;SDS011;67887;59.082;37.928;2023-02-23T11:08:17;8.68;;;4.43;;
78116;SDS011;67887;59.082;37.928;2023-02-23T11:13:22;8.55;;;4.28;;
78116;SDS011;67887;59.082;37.928;2023-02-23T11:18:30;7.40;;;3.60;;
78116;SDS011;67887;59.082;37.928;2023-02-23T11:20:58;7.88;;;3.97;;
78116;SDS011;67887;59.082;37.928;2023-02-23T11:25:56;7.80;;;3.97;;
78116;SDS011;67887;59.082;37.928;2023-02-23T11:28:49;8.10;;;3.90;;
78116;SDS011;67887;59.082;37.928;2023-02-23T11:31:19;7.55;;;3.70;;
78116;SDS011;67887;59.082;37.928;2023-02-23T11:33:46;7.95;;;3.78;;
78116;SDS011;67887;59.082;37.928;2023-02-23T11:36:24;8.45;;;3.88;;
78116;SDS011;67887;59.082;37.928;2023-02-23T11:39:13;6.82;;;3.50;;
78116;SDS011;67887;59.082;37.928;2023-02-23T11:41:44;7.28;;;3.55;;
78116;SDS011;67887;59.082;37.928;2023-02-23T11:44:20;7.95;;;3.78;;
78116;SDS011;67887;59.082;37.928;2023-02-23T11:46:48;7.45;;;3.97;;
78116;SDS011;67887;59.082;37.928;2023-02-23T11:49:17;7.88;;;3.90;;
78116;SDS011;67887;59.082;37.928;2023-02-23T11:51:49;9.00;;;4.03;;
78116;SDS011;67887;59.082;37.928;2023-02-23T11:54:37;9.27;;;4.15;;
78116;SDS011;67887;59.082;37.928;2023-02-23T11:57:03;10.90;;;4.68;;
78116;SDS011;67887;59.082;37.928;2023-02-23T12:04:48;8.38;;;4.40;;
78116;SDS011;67887;59.082;37.928;2023-02-23T12:10:04;8.75;;;4.13;;
78116;SDS011;67887;59.082;37.928;2023-02-23T12:12:34;8.88;;;4.13;;
78116;SDS011;67887;59.082;37.928;2023-02-23T12:15:28;8.80;;;3.85;;
78116;SDS011;67887;59.082;37.928;2023-02-23T12:20:43;11.38;;;4.45;;
78116;SDS011;67887;59.082;37.928;2023-02-23T12:23:17;8.13;;;3.95;;
78116;SDS011;67887;59.082;37.928;2023-02-23T12:31:05;10.50;;;4.50;;
78116;SDS011;67887;59.082;37.928;2023-02-23T12:34:00;8.73;;;3.85;;
78116;SDS011;67887;59.082;37.928;2023-02-23T12:36:37;8.57;;;3.95;;
78116;SDS011;67887;59.082;37.928;2023-02-23T12:42:15;8.38;;;4.60;;
78116;SDS011;67887;59.082;37.928;2023-02-23T12:44:47;7.47;;;3.85;;
78116;SDS011;67887;59.082;37.928;2023-02-23T12:50:03;8.43;;;4.00;;
78116;SDS011;67887;59.082;37.928;2023-02-23T12:52:46;8.38;;;3.90;;
78116;SDS011;67887;59.082;37.928;2023-02-23T12:55:27;7.40;;;3.90;;
78116;SDS011;67887;59.082;37.928;2023-02-23T12:58:22;9.57;;;4.60;;
78116;SDS011;67887;59.082;37.928;2023-02-23T13:01:01;10.13;;;4.38;;
78116;SDS011;67887;59.082;37.928;2023-02-23T13:09:18;7.85;;;3.72;;
78116;SDS011;67887;59.082;37.928;2023-02-23T13:14:54;9.15;;;4.22;;
78116;SDS011;67887;59.082;37.928;2023-02-23T13:17:43;7.68;;;4.10;;
78116;SDS011;67887;59.082;37.928;2023-02-23T13:22:50;7.13;;;3.60;;
78116;SDS011;67887;59.082;37.928;2023-02-23T13:28:07;9.18;;;3.92;;
78116;SDS011;67887;59.082;37.928;2023-02-23T13:30:42;9.77;;;4.35;;
78116;SDS011;67887;59.082;37.928;2023-02-23T13:33:23;7.57;;;3.95;;
78116;SDS011;67887;59.082;37.928;2023-02-23T13:35:52;8.82;;;3.97;;
78116;SDS011;67887;59.082;37.928;2023-02-23T13:38:21;8.35;;;4.20;;
78116;SDS011;67887;59.082;37.928;2023-02-23T13:41:32;9.00;;;4.20;;
78116;SDS011;67887;59.082;37.928;2023-02-23T13:44:06;10.10;;;4.15;;
78116;SDS011;67887;59.082;37.928;2023-02-23T13:46:50;10.90;;;4.28;;
78116;SDS011;67887;59.082;37.928;2023-02-23T13:51:58;9.13;;;3.65;;
78116;SDS011;67887;59.082;37.928;2023-02-23T13:54:34;8.60;;;3.88;;
78116;SDS011;67887;59.082;37.928;2023-02-23T13:57:10;8.50;;;3.53;;
78116;SDS011;67887;59.082;37.928;2023-02-23T13:59:41;8.82;;;3.95;;
78116;SDS011;67887;59.082;37.928;2023-02-23T14:04:49;6.20;;;3.08;;
78116;SDS011;67887;59.082;37.928;2023-02-23T14:07:16;7.80;;;3.72;;
78116;SDS011;67887;59.082;37.928;2023-02-23T14:09:54;8.80;;;4.00;;
78116;SDS011;67887;59.082;37.928;2023-02-23T14:12:25;8.52;;;3.95;;
78116;SDS011;67887;59.082;37.928;2023-02-23T14:15:26;7.72;;;3.45;;
78116;SDS011;67887;59.082;37.928;2023-02-23T14:17:59;9.30;;;3.78;;
78116;SDS011;67887;59.082;37.928;2023-02-23T14:28:39;8.52;;;3.58;;
78116;SDS011;67887;59.082;37.928;2023-02-23T14:31:16;8.52;;;3.85;;
78116;SDS011;67887;59.082;37.928;2023-02-23T14:43:51;8.55;;;3.55;;
78116;SDS011;67887;59.082;37.928;2023-02-23T14:46:20;9.15;;;3.97;;
78116;SDS011;67887;59.082;37.928;2023-02-23T14:54:20;9.27;;;3.67;;
78116;SDS011;67887;59.082;37.928;2023-02-23T14:56:54;8.70;;;3.80;;
78116;SDS011;67887;59.082;37.928;2023-02-23T14:59:24;8.23;;;3.75;;
78116;SDS011;67887;59.082;37.928;2023-02-23T15:01:53;12.13;;;5.45;;
78116;SDS011;67887;59.082;37.928;2023-02-23T15:04:24;10.43;;;4.45;;
78116;SDS011;67887;59.082;37.928;2023-02-23T15:06:53;8.75;;;3.97;;
78116;SDS011;67887;59.082;37.928;2023-02-23T15:09:28;7.53;;;3.60;;
78116;SDS011;67887;59.082;37.928;2023-02-23T15:12:03;10.63;;;3.88;;
78116;SDS011;67887;59.082;37.928;2023-02-23T15:14:37;10.68;;;4.20;;
78116;SDS011;67887;59.082;37.928;2023-02-23T15:17:08;9.27;;;4.50;;
78116;SDS011;67887;59.082;37.928;2023-02-23T15:19:39;10.75;;;4.07;;
78116;SDS011;67887;59.082;37.928;2023-02-23T15:22:05;9.15;;;4.25;;
78116;SDS011;67887;59.082;37.928;2023-02-23T15:24:39;9.32;;;4.25;;
78116;SDS011;67887;59.082;37.928;2023-02-23T15:27:18;8.43;;;4.00;;
78116;SDS011;67887;59.082;37.928;2023-02-23T15:29:51;11.00;;;4.55;;
78116;SDS011;67887;59.082;37.928;2023-02-23T15:32:21;9.85;;;4.50;;
78116;SDS011;67887;59.082;37.928;2023-02-23T15:34:50;11.88;;;4.45;;
78116;SDS011;67887;59.082;37.928;2023-02-23T15:37:34;8.73;;;4.00;;
78116;SDS011;67887;59.082;37.928;2023-02-23T15:40:15;11.27;;;4.18;;
78116;SDS011;67887;59.082;37.928;2023-02-23T15:42:55;9.80;;;4.47;;
78116;SDS011;67887;59.082;37.928;2023-02-23T15:45:29;8.95;;;4.00;;
78116;SDS011;67887;59.082;37.928;2023-02-23T15:48:03;9.98;;;4.05;;
78116;SDS011;67887;59.082;37.928;2023-02-23T15:50:45;12.80;;;5.22;;
78116;SDS011;67887;59.082;37.928;2023-02-23T15:53:27;9.75;;;4.72;;
78116;SDS011;67887;59.082;37.928;2023-02-23T15:56:01;9.63;;;4.05;;
78116;SDS011;67887;59.082;37.928;2023-02-23T15:58:45;9.90;;;4.13;;
78116;SDS011;67887;59.082;37.928;2023-02-23T16:01:26;9.25;;;3.90;;
78116;SDS011;67887;59.082;37.928;2023-02-23T16:06:32;11.32;;;4.47;;
78116;SDS011;67887;59.082;37.928;2023-02-23T16:14:20;10.77;;;4.88;;
78116;SDS011;67887;59.082;37.928;2023-02-23T16:16:48;12.00;;;4.13;;
78116;SDS011;67887;59.082;37.928;2023-02-23T16:19:18;10.98;;;4.38;;
78116;SDS011;67887;59.082;37.928;2023-02-23T16:21:46;11.05;;;4.10;;
78116;SDS011;67887;59.082;37.928;2023-02-23T16:24:18;9.05;;;3.90;;
78116;SDS011;67887;59.082;37.928;2023-02-23T16:27:20;10.10;;;3.83;;
78116;SDS011;67887;59.082;37.928;2023-02-23T16:29:40;8.55;;;4.03;;
78116;SDS011;67887;59.082;37.928;2023-02-23T16:32:16;8.68;;;3.78;;
78116;SDS011;67887;59.082;37.928;2023-02-23T16:34:53;9.98;;;4.65;;
78116;SDS011;67887;59.082;37.928;2023-02-23T16:37:24;9.32;;;3.85;;
78116;SDS011;67887;59.082;37.928;2023-02-23T16:39:53;11.55;;;4.72;;
78116;SDS011;67887;59.082;37.928;2023-02-23T16:42:34;10.68;;;4.03;;
78116;SDS011;67887;59.082;37.928;2023-02-23T16:45:00;9.02;;;4.03;;
78116;SDS011;67887;59.082;37.928;2023-02-23T16:47:45;11.02;;;4.32;;
78116;SDS011;67887;59.082;37.928;2023-02-23T16:50:16;9.30;;;4.45;;
78116;SDS011;67887;59.082;37.928;2023-02-23T16:52:45;11.15;;;4.15;;
78116;SDS011;67887;59.082;37.928;2023-02-23T16:55:16;13.27;;;4.60;;
78116;SDS011;67887;59.082;37.928;2023-02-23T16:57:44;8.85;;;3.92;;
78116;SDS011;67887;59.082;37.928;2023-02-23T17:00:15;9.10;;;4.20;;
78116;SDS011;67887;59.082;37.928;2023-02-23T17:02:47;9.85;;;4.20;;
78116;SDS011;67887;59.082;37.928;2023-02-23T17:05:16;11.05;;;4.32;;
78116;SDS011;67887;59.082;37.928;2023-02-23T17:07:46;12.32;;;4.28;;
78116;SDS011;67887;59.082;37.928;2023-02-23T17:10:14;11.27;;;4.30;;
78116;SDS011;67887;59.082;37.928;2023-02-23T17:12:56;9.30;;;4.03;;
78116;SDS011;67887;59.082;37.928;2023-02-23T17:15:25;10.13;;;4.03;;
78116;SDS011;67887;59.082;37.928;2023-02-23T17:17:54;8.80;;;3.90;;